Time;durP1;ratioP1;P1;durP2;ratioP2;P2;SDS_P1;SDS_P2;PMS_P1;PMS_P2;Temp;Humidity;BMP_temperature;BMP_pressure;BME280_temperature;BME280_humidity;BME280_pressure;Samples;Min_cycle;Max_cycle;Signal;HPM_P1;HPM_P2
2022/01/05 00:02:10;;;;;;;4.87;1.80;;;;;;;13.57;49.50;98164.19;7848621;31;36927;-79
2022/01/05 00:06:27;;;;;;;4.87;1.80;;;;;;;13.71;49.07;98170.22;7848528;31;39288;-78
2022/01/05 00:10:43;;;;;;;1.65;1.52;;;;;;;13.25;50.23;98152.75;7848498;31;41208;-78
2022/01/05 00:14:59;;;;;;;2.15;1.80;;;;;;;13.71;49.01;98151.88;7848313;31;39258;-78
2022/01/05 00:19:15;;;;;;;5.53;2.17;;;;;;;12.92;51.36;98156.91;7848478;31;37083;-78
2022/01/05 00:23:31;;;;;;;4.05;2.47;;;;;;;13.09;50.87;98142.34;7848410;31;39228;-79
2022/01/05 00:27:47;;;;;;;4.60;2.00;;;;;;;12.94;51.33;98134.69;7848228;31;40606;-79
2022/01/05 00:32:03;;;;;;;3.42;1.70;;;;;;;13.25;50.44;98139.06;7848154;31;38472;-78
2022/01/05 00:36:20;;;;;;;4.12;2.35;;;;;;;13.61;49.43;98135.03;7848243;31;36907;-78
2022/01/05 00:40:36;;;;;;;2.97;2.03;;;;;;;13.67;49.32;98142.69;7848606;31;40045;-79
2022/01/05 00:44:52;;;;;;;5.45;2.00;;;;;;;13.52;49.70;98149.56;7848011;31;39919;-78
2022/01/05 00:49:08;;;;;;;2.70;1.85;;;;;;;13.48;49.91;98150.56;7847800;31;38683;-79
2022/01/05 00:53:25;;;;;;;4.82;1.80;;;;;;;13.29;50.29;98145.47;7847909;31;37733;-77
2022/01/05 00:57:41;;;;;;;2.97;1.77;;;;;;;13.55;49.86;98145.34;7848011;31;39284;-79
2022/01/05 01:01:57;;;;;;;3.28;2.08;;;;;;;13.64;49.56;98145.28;7847788;31;41231;-78
2022/01/05 01:06:13;;;;;;;2.67;1.80;;;;;;;13.66;49.49;98143.84;7847758;31;38504;-78
2022/01/05 01:10:29;;;;;;;3.03;1.70;;;;;;;13.11;50.67;98139.28;7847798;31;36845;-79
2022/01/05 01:14:46;;;;;;;2.67;1.98;;;;;;;13.06;50.97;98134.81;7847696;31;39172;-78
2022/01/05 01:19:02;;;;;;;2.42;1.75;;;;;;;12.99;51.49;98139.97;7847646;31;40824;-78
2022/01/05 01:23:21;;;;;;;3.35;1.90;;;;;;;13.61;49.86;98135.03;7847512;31;38697;-78
2022/01/05 01:27:40;;;;;;;4.32;1.90;;;;;;;13.37;50.39;98149.34;7847693;31;36794;-78
2022/01/05 01:31:56;;;;;;;4.93;1.90;;;;;;;13.70;49.63;98144.78;7847536;31;39960;-78
2022/01/05 01:36:12;;;;;;;3.60;1.90;;;;;;;13.23;51.09;98149.50;7847433;31;40935;-78
2022/01/05 01:40:29;;;;;;;5.03;1.95;;;;;;;13.28;51.04;98144.69;7847346;31;37768;-79
2022/01/05 01:44:45;;;;;;;2.83;1.77;;;;;;;13.61;50.05;98144.03;7847413;31;36870;-79
2022/01/05 01:49:01;;;;;;;2.87;1.77;;;;;;;13.48;50.35;98137.66;7847165;31;39896;-78
2022/01/05 01:53:17;;;;;;;3.22;1.62;;;;;;;13.70;49.82;98133.81;7847094;31;40713;-79
2022/01/05 01:57:35;;;;;;;3.97;1.85;;;;;;;13.64;49.84;98145.28;7847199;31;37929;-78
2022/01/05 02:01:51;;;;;;;2.72;1.90;;;;;;;13.61;50.08;98145.97;7847257;31;36893;-78
2022/01/05 02:06:07;;;;;;;3.90;2.00;;;;;;;13.53;50.48;98134.72;7847126;31;38957;-78
2022/01/05 02:10:23;;;;;;;2.17;1.75;;;;;;;13.42;50.57;98133.53;7847040;31;39851;-78
2022/01/05 02:14:40;;;;;;;3.05;1.90;;;;;;;12.88;51.96;98136.00;7846827;31;37920;-78
2022/01/05 02:18:59;;;;;;;5.07;1.80;;;;;;;12.84;52.62;98129.56;7846280;31;36984;-78
2022/01/05 02:23:15;;;;;;;1.90;1.70;;;;;;;13.28;51.33;98125.53;7847085;31;38896;-78
2022/01/05 02:27:31;;;;;;;3.47;1.87;;;;;;;13.32;51.25;98122.97;7846753;31;40706;-79
2022/01/05 02:31:48;;;;;;;3.42;2.03;;;;;;;13.30;51.19;98120.50;7846619;31;37773;-78
2022/01/05 02:36:04;;;;;;;3.85;2.12;;;;;;;13.35;51.00;98119.56;7846527;31;37745;-78
2022/01/05 02:40:23;;;;;;;2.20;1.83;;;;;;;12.88;51.59;98111.37;7846700;31;39979;-79
2022/01/05 02:44:45;;;;;;;2.67;1.80;;;;;;;12.98;51.86;98113.75;7846446;31;39056;-78
2022/01/05 02:49:03;;;;;;;4.20;1.90;;;;;;;12.73;52.59;98108.06;7846247;31;37883;-78
2022/01/05 02:53:19;;;;;;;2.70;1.90;;;;;;;12.85;52.72;98114.75;7846192;31;37639;-78
2022/01/05 02:57:35;;;;;;;2.35;2.00;;;;;;;12.71;52.51;98109.50;7846192;31;39325;-78
2022/01/05 03:01:51;;;;;;;4.00;2.25;;;;;;;12.67;53.13;98122.22;7845977;31;39953;-79
2022/01/05 03:06:08;;;;;;;3.10;1.90;;;;;;;12.70;53.26;98125.13;7845844;31;38139;-78
2022/01/05 03:10:24;;;;;;;2.72;1.90;;;;;;;12.89;53.07;98123.94;7845568;31;36957;-79
2022/01/05 03:14:40;;;;;;;4.70;2.20;;;;;;;12.65;53.14;98125.28;7845653;31;40004;-78
2022/01/05 03:18:56;;;;;;;4.10;2.35;;;;;;;13.01;52.61;98118.56;7845527;31;40148;-79
2022/01/05 03:23:12;;;;;;;3.55;2.10;;;;;;;12.78;53.22;98127.03;7845365;31;38939;-79
2022/01/05 03:27:29;;;;;;;3.85;2.17;;;;;;;12.54;53.76;98127.56;7845290;31;36886;-79
2022/01/05 03:31:45;;;;;;;2.12;1.90;;;;;;;12.53;53.71;98119.69;7846018;31;39907;-78
2022/01/05 03:36:01;;;;;;;3.67;2.25;;;;;;;11.82;54.34;98120.88;7848891;31;39918;-78
2022/01/05 03:40:17;;;;;;;4.40;2.60;;;;;;;12.05;54.15;98109.81;7848867;31;37576;-78
2022/01/05 03:44:34;;;;;;;4.70;3.03;;;;;;;11.78;54.86;98111.69;7848891;31;36631;-78
2022/01/05 03:48:50;;;;;;;5.57;2.35;;;;;;;11.75;54.91;98113.16;7848827;31;39211;-78
2022/01/05 03:53:07;;;;;;;4.50;2.60;;;;;;;11.72;54.90;98118.44;7848680;31;39889;-78
2022/01/05 03:57:25;;;;;;;8.15;2.95;;;;;;;11.30;56.57;98118.03;7848614;31;37943;-78
2022/01/05 04:01:41;;;;;;;8.07;2.78;;;;;;;11.51;56.15;98112.81;7848635;31;37651;-78
2022/01/05 04:05:57;;;;;;;4.80;2.70;;;;;;;11.59;56.08;98107.34;7848609;31;40418;-78
2022/01/05 04:10:13;;;;;;;3.90;2.30;;;;;;;11.28;56.79;98111.00;7848484;31;41161;-78
2022/01/05 04:14:29;;;;;;;4.37;2.50;;;;;;;11.46;56.55;98111.03;7848417;31;37633;-78
2022/01/05 04:18:45;;;;;;;4.70;2.80;;;;;;;11.34;57.61;98113.56;7848495;31;36710;-78
2022/01/05 04:23:03;;;;;;;5.43;2.85;;;;;;;11.50;56.95;98111.97;7848400;31;39359;-78
2022/01/05 04:27:19;;;;;;;4.32;2.67;;;;;;;11.34;57.29;98103.44;7848284;31;40790;-79
2022/01/05 04:31:35;;;;;;;3.83;2.50;;;;;;;11.55;58.27;98106.38;7848202;31;37550;-79
2022/01/05 04:35:51;;;;;;;6.30;2.30;;;;;;;11.88;56.42;98095.00;7848187;31;37532;-78
2022/01/05 04:40:10;;;;;;;3.53;2.42;;;;;;;11.84;56.97;98091.31;7848265;31;39949;-78
2022/01/05 04:44:26;;;;;;;4.40;2.42;;;;;;;11.77;57.25;98091.00;7847861;31;38879;-78
2022/01/05 04:48:42;;;;;;;4.60;2.50;;;;;;;11.76;57.54;98082.00;7848448;31;38934;-78
2022/01/05 04:52:58;;;;;;;5.05;2.87;;;;;;;11.94;56.51;98080.09;7847751;31;37731;-78
2022/01/05 04:57:17;;;;;;;15.07;7.80;;;;;;;12.05;56.66;98091.47;7847940;31;40024;-78
2022/01/05 05:01:33;;;;;;;13.95;7.18;;;;;;;11.51;56.06;98075.41;7847986;31;40625;-78
2022/01/05 05:05:50;;;;;;;6.80;3.22;;;;;;;11.48;56.26;98065.13;7847744;31;38640;-78
2022/01/05 05:10:06;;;;;;;11.65;5.25;;;;;;;11.85;56.36;98073.81;7847855;31;37782;-78
2022/01/05 05:14:22;;;;;;;10.20;5.00;;;;;;;11.53;56.33;98078.59;7847756;31;39316;-78
2022/01/05 05:18:38;;;;;;;8.95;4.30;;;;;;;11.52;56.59;98079.75;7847606;31;40100;-78
2022/01/05 05:22:54;;;;;;;6.80;3.92;;;;;;;11.40;57.14;98101.38;7847551;31;37823;-78
2022/01/05 05:27:10;;;;;;;9.32;3.92;;;;;;;11.49;56.77;98093.19;7847535;31;37683;-78
2022/01/05 05:31:26;;;;;;;8.20;3.90;;;;;;;11.34;57.38;98099.94;7847551;31;39184;-78
2022/01/05 05:35:43;;;;;;;9.57;3.95;;;;;;;11.04;58.74;98107.88;7847451;31;39924;-78
2022/01/05 05:39:59;;;;;;;6.87;3.92;;;;;;;11.14;57.94;98104.88;7847411;31;37939;-78
2022/01/05 05:44:15;;;;;;;5.80;3.60;;;;;;;10.98;58.65;98111.84;7847457;31;37528;-78
2022/01/05 05:48:31;;;;;;;9.88;3.85;;;;;;;11.11;58.53;98105.50;7847387;31;39690;-79
2022/01/05 05:52:47;;;;;;;7.97;4.12;;;;;;;11.07;58.79;98116.22;7847129;31;40553;-79
2022/01/05 05:57:04;;;;;;;8.60;4.32;;;;;;;10.52;60.27;98132.97;7846278;31;37800;-78
2022/01/05 06:01:20;;;;;;;9.18;4.87;;;;;;;10.56;60.03;98128.50;7847284;31;37746;-78
2022/01/05 06:05:37;;;;;;;9.77;5.18;;;;;;;10.56;60.11;98116.81;7847122;31;39937;-78
2022/01/05 06:09:53;;;;;;;7.60;4.35;;;;;;;10.46;60.38;98109.69;7847117;31;39866;-78
2022/01/05 06:14:09;;;;;;;11.85;4.65;;;;;;;10.83;58.89;98122.06;7846912;31;37878;-78
2022/01/05 06:18:25;;;;;;;8.05;4.50;;;;;;;10.71;59.57;98124.59;7847034;31;37765;-78
2022/01/05 06:22:42;;;;;;;10.23;4.30;;;;;;;10.71;59.77;98124.59;7846935;31;39296;-78
2022/01/05 06:26:58;;;;;;;10.40;4.37;;;;;;;10.96;58.74;98125.00;7846764;31;39990;-78
2022/01/05 06:31:14;;;;;;;8.70;4.70;;;;;;;10.67;59.20;98107.22;7846630;31;37874;-78
2022/01/05 06:35:30;;;;;;;7.70;4.18;;;;;;;10.40;60.44;98102.75;7846525;31;37741;-78
2022/01/05 06:39:46;;;;;;;8.77;4.25;;;;;;;10.59;59.66;98116.16;7846565;31;39877;-78
2022/01/05 06:44:03;;;;;;;7.75;4.55;;;;;;;10.41;60.25;98118.00;7846393;31;40734;-78
2022/01/05 06:48:19;;;;;;;9.88;4.90;;;;;;;10.58;59.81;98114.56;7846331;31;37918;-78
2022/01/05 06:52:35;;;;;;;8.13;4.62;;;;;;;10.46;60.51;98123.31;7846180;31;36974;-78
2022/01/05 06:56:51;;;;;;;7.68;4.30;;;;;;;10.52;60.39;98116.63;7845076;31;38999;-79
2022/01/05 07:01:11;;;;;;;10.07;4.68;;;;;;;10.40;60.94;98119.94;7846070;31;40026;-78
2022/01/05 07:05:27;;;;;;;11.45;5.05;;;;;;;10.10;62.08;98133.13;7846403;31;37691;-78
2022/01/05 07:09:43;;;;;;;11.10;5.32;;;;;;;10.33;61.35;98133.16;7848121;31;36730;-78
2022/01/05 07:13:59;;;;;;;8.90;4.62;;;;;;;10.61;60.46;98133.03;7849225;31;39637;-78
2022/01/05 07:18:16;;;;;;;10.10;5.50;;;;;;;10.51;60.87;98145.00;7849130;31;40116;-78
2022/01/05 07:22:32;;;;;;;11.18;6.25;;;;;;;10.56;60.60;98138.63;7849083;31;37929;-80
2022/01/05 07:26:48;;;;;;;15.05;5.95;;;;;;;10.50;60.89;98144.19;7849085;31;37039;-78
2022/01/05 07:31:04;;;;;;;10.07;5.68;;;;;;;10.43;61.09;98141.06;7848943;31;40246;-77
2022/01/05 07:35:20;;;;;;;15.75;5.62;;;;;;;10.39;61.27;98134.66;7848746;31;39886;-82
2022/01/05 07:39:37;;;;;;;12.70;5.60;;;;;;;10.38;61.31;98137.69;7848784;31;38606;-80
2022/01/05 07:43:53;;;;;;;13.25;5.70;;;;;;;10.56;60.67;98123.06;7848860;31;37807;-78
2022/01/05 07:48:09;;;;;;;10.52;5.93;;;;;;;10.59;61.01;98138.78;7848671;31;39335;-77
2022/01/05 07:52:25;;;;;;;13.88;6.78;;;;;;;10.49;61.02;98126.22;7848283;31;39999;-78
2022/01/05 07:56:41;;;;;;;15.30;8.40;;;;;;;10.70;60.85;98123.75;7848259;31;38717;-78
2022/01/05 08:00:57;;;;;;;16.30;8.55;;;;;;;10.71;60.68;98130.03;7848377;31;37636;-77
2022/01/05 08:05:13;;;;;;;14.40;8.27;;;;;;;11.02;59.47;98140.09;7848386;31;39195;-77
2022/01/05 08:09:30;;;;;;;13.82;7.68;;;;;;;10.86;60.27;98145.16;7848171;31;40856;-78
2022/01/05 08:13:47;;;;;;;17.10;8.23;;;;;;;10.85;60.02;98149.81;7848079;31;38039;-79
2022/01/05 08:18:03;;;;;;;16.33;8.02;;;;;;;10.67;60.67;98162.53;7847941;31;37038;-79
2022/01/05 08:22:19;;;;;;;16.58;7.78;;;;;;;10.82;60.23;98163.28;7848463;31;40026;-78
2022/01/05 08:26:35;;;;;;;10.50;6.40;;;;;;;10.62;60.85;98168.12;7848334;31;39746;-80
2022/01/05 08:30:51;;;;;;;12.43;6.30;;;;;;;10.94;60.25;98171.66;7848203;31;37673;-79
2022/01/05 08:35:08;;;;;;;9.07;5.32;;;;;;;10.93;60.91;98191.06;7848124;31;36762;-78
2022/01/05 08:39:25;;;;;;;18.20;7.37;;;;;;;11.04;61.15;98178.78;7846929;31;39956;-78
2022/01/05 08:43:41;;;;;;;15.82;6.12;;;;;;;10.57;62.62;98198.22;7846840;31;39895;-78
2022/01/05 08:47:59;;;;;;;8.23;4.78;;;;;;;10.30;63.57;98191.75;7847897;31;37592;-77
2022/01/05 08:52:15;;;;;;;4.00;2.62;;;;;;;10.04;65.31;98205.19;7847991;31;36607;-78
2022/01/05 08:56:32;;;;;;;5.60;3.15;;;;;;;9.86;66.92;98204.19;7847931;31;39803;-78
2022/01/05 09:00:48;;;;;;;5.80;3.30;;;;;;;9.94;66.97;98214.38;7847869;31;39953;-79
2022/01/05 09:05:06;;;;;;;7.40;3.65;;;;;;;10.09;66.26;98185.19;7847660;31;38641;-78
2022/01/05 09:09:22;;;;;;;6.80;2.92;;;;;;;9.78;67.43;98213.09;7847761;31;37780;-81
2022/01/05 09:13:38;;;;;;;5.22;3.17;;;;;;;10.45;65.35;98231.50;7847652;31;39344;-78
2022/01/05 09:17:54;;;;;;;5.12;3.40;;;;;;;9.71;66.84;98240.72;7847754;31;39885;-79
2022/01/05 09:22:11;;;;;;;5.28;3.37;;;;;;;9.84;66.21;98244.53;7847443;31;38542;-76
2022/01/05 09:26:37;;;;;;;8.02;3.47;;;;;;;9.80;66.45;98261.78;7847482;31;38191;-77
2022/01/05 09:30:53;;;;;;;6.80;3.60;;;;;;;9.88;65.52;98282.81;7846223;31;40420;-76
2022/01/05 09:35:14;;;;;;;5.93;3.75;;;;;;;10.04;64.98;98270.53;7847236;31;39936;-78
2022/01/05 09:44:10;;;;;;;7.12;4.28;;;;;;;9.83;66.04;98261.97;7847442;31;36713;-77
2022/01/05 09:48:29;;;;;;;8.90;4.35;;;;;;;10.53;63.70;98255.25;7847511;31;39397;-78
2022/01/05 09:52:46;;;;;;;7.78;4.50;;;;;;;10.44;63.92;98259.84;7847165;31;41644;-78
2022/01/05 09:57:03;;;;;;;7.85;5.03;;;;;;;10.26;64.52;98260.78;7846977;31;38663;-78
2022/01/05 10:01:19;;;;;;;6.28;4.03;;;;;;;10.30;64.47;98262.59;7847316;31;37409;-79
2022/01/05 10:05:36;;;;;;;9.90;4.43;;;;;;;9.87;66.66;98262.19;7847095;31;39404;-78
2022/01/05 10:09:52;;;;;;;9.38;5.55;;;;;;;9.53;68.03;98277.00;7846970;31;40070;-77
2022/01/05 10:14:11;;;;;;;8.55;5.12;;;;;;;9.48;68.86;98271.66;7846902;31;38668;-78
2022/01/05 10:18:37;;;;;;;13.07;6.10;;;;;;;9.18;70.92;98290.97;7847035;31;36903;-78
2022/01/05 10:22:54;;;;;;;10.63;5.80;;;;;;;9.01;71.25;98299.66;7845853;31;39141;-78
2022/01/05 10:27:18;;;;;;;6.60;4.53;;;;;;;9.31;70.38;98297.53;7845520;31;40845;-78
2022/01/05 10:31:37;;;;;;;7.57;4.70;;;;;;;8.85;71.85;98301.03;7846754;31;37836;-79
2022/01/05 10:35:56;;;;;;;6.60;3.90;;;;;;;8.95;71.89;98314.47;7846530;31;36951;-77
2022/01/05 10:40:19;;;;;;;6.35;4.30;;;;;;;8.88;71.70;98307.78;7845982;31;39966;-77
2022/01/05 10:44:36;;;;;;;7.85;5.15;;;;;;;8.65;73.23;98321.97;7776598;31;40515;-78
2022/01/05 10:48:54;;;;;;;8.88;5.45;;;;;;;8.21;74.48;98320.41;7783238;32;228342;-77
2022/01/05 10:53:21;;;;;;;10.38;6.53;;;;;;;8.19;75.31;98332.66;7791032;32;37857;-78
2022/01/05 10:57:37;;;;;;;11.35;6.28;;;;;;;8.12;75.91;98343.88;7790127;32;38969;-78
2022/01/05 11:01:54;;;;;;;10.82;6.85;;;;;;;8.56;74.51;98323.75;7790983;32;40707;-78
2022/01/05 11:06:16;;;;;;;11.90;6.68;;;;;;;9.29;72.17;98331.56;7795139;32;37821;-80
2022/01/05 11:10:32;;;;;;;12.37;7.20;;;;;;;8.84;74.30;98332.03;7795384;32;38007;-80
2022/01/05 11:14:52;;;;;;;11.52;6.78;;;;;;;8.76;74.61;98349.00;7796167;32;39353;-78
2022/01/05 11:19:29;;;;;;;9.07;5.55;;;;;;;9.10;72.94;98356.09;7790519;32;40787;-78
2022/01/05 11:23:45;;;;;;;10.40;6.78;;;;;;;8.64;73.08;98377.44;7789897;32;38696;-77
2022/01/05 11:28:01;;;;;;;10.57;6.55;;;;;;;8.09;75.55;98377.03;7789607;32;36706;-78
2022/01/05 11:32:20;;;;;;;12.75;7.12;;;;;;;8.68;73.79;98376.84;7790139;32;38939;-78
2022/01/05 11:36:37;;;;;;;9.48;6.07;;;;;;;8.82;72.26;98389.38;7789201;32;40049;-77
2022/01/05 11:40:55;;;;;;;8.05;4.82;;;;;;;8.89;72.47;98385.50;7788779;32;37462;-78
2022/01/05 11:45:11;;;;;;;9.63;5.35;;;;;;;8.75;71.24;98399.81;7786012;32;36980;-76
2022/01/05 11:49:28;;;;;;;8.45;5.05;;;;;;;8.70;72.25;98389.03;7788952;32;37489;-78
2022/01/05 11:53:46;;;;;;;7.57;4.60;;;;;;;8.63;71.59;98402.97;7791310;32;39852;-78
2022/01/05 11:58:20;;;;;;;6.25;4.10;;;;;;;8.88;70.51;98409.13;7792771;32;37867;-78
2022/01/05 12:02:41;;;;;;;6.43;4.07;;;;;;;8.91;69.94;98413.19;7793493;32;36943;-77
2022/01/05 12:07:01;;;;;;;5.65;4.37;;;;;;;8.45;71.20;98422.75;7791336;32;40090;-77
2022/01/05 12:11:42;;;;;;;6.37;4.22;;;;;;;8.86;69.58;98416.78;7793272;32;40097;-77
2022/01/05 12:15:59;;;;;;;5.07;3.40;;;;;;;8.70;69.41;98412.69;7792522;32;37986;-78
2022/01/05 12:20:15;;;;;;;5.95;3.50;;;;;;;9.04;68.35;98423.34;7793481;32;36987;-79
2022/01/05 12:25:03;;;;;;;4.78;3.50;;;;;;;9.07;68.09;98416.47;7793502;32;40142;-78
2022/01/05 12:29:30;;;;;;;4.35;3.05;;;;;;;9.30;67.76;98415.56;7789102;32;39858;-82
2022/01/05 12:33:51;;;;;;;3.33;2.58;;;;;;;9.14;67.38;98411.47;7793268;32;38138;-78
2022/01/05 12:38:08;;;;;;;5.03;2.75;;;;;;;8.82;66.21;98424.72;7793259;32;36898;-77
2022/01/05 12:42:24;;;;;;;5.72;3.10;;;;;;;9.07;66.06;98424.63;7793665;32;40121;-77
2022/01/05 12:46:52;;;;;;;4.00;2.80;;;;;;;8.90;67.35;98415.09;7792044;32;40034;-76
2022/01/05 12:51:17;;;;;;;8.25;2.87;;;;;;;8.76;67.34;98436.78;7793021;32;37824;-77
2022/01/05 12:55:35;;;;;;;2.92;2.37;;;;;;;8.39;67.90;98440.22;7793078;32;37632;-79
2022/01/05 12:59:52;;;;;;;6.25;2.75;;;;;;;8.43;67.78;98446.69;7793141;32;40419;-79
2022/01/05 13:04:12;;;;;;;4.12;3.00;;;;;;;8.54;67.54;98447.41;7792854;32;40020;-77
2022/01/05 13:08:32;;;;;;;3.30;2.45;;;;;;;8.81;66.27;98457.62;7792953;32;37747;-78
2022/01/05 13:12:48;;;;;;;3.25;2.58;;;;;;;7.70;70.80;98459.38;7793026;32;37095;-77
2022/01/05 13:17:22;;;;;;;3.20;2.50;;;;;;;7.99;69.35;98461.28;7792774;32;39827;-77
2022/01/05 13:21:48;;;;;;;4.00;2.40;;;;;;;8.29;68.37;98462.84;7792828;32;40102;-77
2022/01/05 13:26:10;;;;;;;4.37;2.92;;;;;;;8.69;66.73;98454.53;7792709;32;37759;-77
2022/01/05 13:30:31;;;;;;;4.57;3.17;;;;;;;8.69;66.76;98481.69;7792768;32;36885;-80
2022/01/05 13:35:06;;;;;;;5.85;3.42;;;;;;;8.48;70.14;98492.00;7792654;32;39255;-82
2022/01/05 13:39:43;;;;;;;8.07;4.50;;;;;;;8.25;72.10;98497.91;7792440;32;40866;-80
2022/01/05 13:43:59;;;;;;;9.65;5.62;;;;;;;9.05;68.34;98483.94;7792391;32;37410;-78
2022/01/05 13:48:18;;;;;;;11.27;6.28;;;;;;;8.12;69.42;98490.44;7792352;32;37803;-77
2022/01/05 13:52:35;;;;;;;6.25;3.92;;;;;;;8.14;68.78;98477.41;7792146;32;39619;-77
2022/01/05 13:56:51;;;;;;;7.80;4.62;;;;;;;8.92;66.86;98485.50;7792079;32;40820;-77
2022/01/05 14:01:12;;;;;;;9.07;5.20;;;;;;;8.67;67.55;98497.47;7792091;32;37571;-77
2022/01/05 14:05:28;;;;;;;10.75;5.30;;;;;;;7.94;71.28;98504.75;7792180;32;37022;-76
2022/01/05 14:10:00;;;;;;;9.15;6.30;;;;;;;8.64;68.23;98491.53;7792058;32;38926;-77
2022/01/05 14:14:16;;;;;;;8.18;5.03;;;;;;;8.52;68.62;98493.03;7790976;32;41594;-77
2022/01/05 14:18:45;;;;;;;12.25;6.70;;;;;;;8.95;67.20;98496.59;7791273;32;38664;-76
2022/01/05 14:23:11;;;;;;;10.77;5.62;;;;;;;8.51;68.69;98515.88;7792067;32;36942;-77
2022/01/05 14:27:27;;;;;;;9.93;5.50;;;;;;;8.71;68.09;98510.22;7791960;32;40008;-77
2022/01/05 14:31:45;;;;;;;8.38;5.10;;;;;;;8.34;69.10;98525.25;7791875;32;40051;-77
2022/01/05 14:36:05;;;;;;;11.65;6.30;;;;;;;7.99;70.93;98537.28;7791834;32;36871;-77
2022/01/05 14:40:28;;;;;;;13.18;5.78;;;;;;;8.33;69.59;98528.25;7790620;32;36641;-76
2022/01/05 14:44:49;;;;;;;11.48;6.68;;;;;;;8.61;68.61;98524.72;7791719;32;39271;-76
2022/01/05 14:49:18;;;;;;;19.33;8.68;;;;;;;7.32;72.74;98545.91;7791323;32;40789;-76
2022/01/05 14:53:46;;;;;;;7.47;4.32;;;;;;;7.87;70.97;98554.72;7791174;32;38572;-77
2022/01/05 14:58:02;;;;;;;7.72;3.90;;;;;;;7.94;71.30;98562.56;7791350;32;36902;-76
2022/01/05 15:02:19;;;;;;;5.55;2.87;;;;;;;7.73;72.12;98580.91;7791352;32;39180;-76
2022/01/05 15:06:35;;;;;;;5.97;3.50;;;;;;;7.64;71.97;98571.72;7791163;32;40070;-76
2022/01/05 15:10:54;;;;;;;4.80;3.28;;;;;;;7.36;72.94;98584.91;7790749;32;38918;-74
2022/01/05 15:15:10;;;;;;;6.07;3.67;;;;;;;7.80;71.47;98573.25;7790859;32;36961;-77
2022/01/05 15:19:26;;;;;;;4.87;3.42;;;;;;;7.19;73.44;98576.34;7791035;32;39951;-77
2022/01/05 15:23:43;;;;;;;5.32;3.47;;;;;;;7.30;73.37;98607.75;7790678;32;40708;-77
2022/01/05 15:27:59;;;;;;;5.35;3.70;;;;;;;7.33;72.27;98615.31;7792524;32;37743;-76
2022/01/05 15:32:15;;;;;;;6.65;3.65;;;;;;;7.38;72.42;98637.00;7794229;32;37631;-76
2022/01/05 15:36:32;;;;;;;5.57;3.55;;;;;;;7.83;70.46;98651.37;7794104;32;40110;-77
2022/01/05 15:40:50;;;;;;;9.05;3.90;;;;;;;8.08;69.20;98636.00;7794050;32;40137;-76
2022/01/05 15:45:06;;;;;;;5.43;4.00;;;;;;;7.59;71.66;98623.28;7794006;32;37943;-77
2022/01/05 15:49:23;;;;;;;9.30;4.80;;;;;;;8.05;69.89;98620.28;7794111;32;36866;-78
2022/01/05 15:53:39;;;;;;;8.63;4.72;;;;;;;8.08;69.53;98617.00;7793781;32;38910;-77
2022/01/05 15:58:00;;;;;;;8.32;5.10;;;;;;;8.02;69.51;98624.38;7793837;32;39886;-77
2022/01/05 16:02:16;;;;;;;10.93;5.35;;;;;;;8.20;68.92;98631.00;7793829;32;37847;-77
2022/01/05 16:06:34;;;;;;;8.50;5.07;;;;;;;7.66;70.30;98632.75;7793680;32;36979;-77
2022/01/05 16:10:50;;;;;;;7.87;4.45;;;;;;;7.93;68.86;98615.19;7793655;32;37448;-77
2022/01/05 16:15:08;;;;;;;11.35;4.15;;;;;;;8.30;67.04;98588.59;7793578;32;39863;-77
2022/01/05 16:19:24;;;;;;;8.98;4.82;;;;;;;8.23;65.93;98583.47;7793439;32;37846;-76
2022/01/05 16:23:42;;;;;;;10.18;5.85;;;;;;;8.23;65.70;98622.28;7793574;32;37006;-75
2022/01/05 16:27:58;;;;;;;9.95;5.60;;;;;;;7.49;68.80;98624.19;7793533;32;40005;-76
2022/01/05 16:32:14;;;;;;;10.18;5.30;;;;;;;8.26;65.57;98620.91;7793354;32;40014;-76
2022/01/05 16:36:30;;;;;;;10.70;6.57;;;;;;;7.53;67.55;98626.03;7793162;32;37998;-75
2022/01/05 16:40:46;;;;;;;8.63;4.78;;;;;;;7.66;66.16;98634.66;7792789;32;37152;-75
2022/01/05 16:45:04;;;;;;;6.07;3.05;;;;;;;7.32;66.37;98640.81;7793299;32;39167;-76
2022/01/05 16:49:20;;;;;;;5.35;3.50;;;;;;;7.92;64.16;98653.47;7793137;32;40872;-76
2022/01/05 16:53:37;;;;;;;5.45;3.40;;;;;;;7.42;65.60;98637.25;7792991;32;37778;-76
2022/01/05 17:02:28;;;;;;;9.65;4.55;;;;;;;7.44;64.26;98664.88;7793056;32;39184;-77
2022/01/05 17:06:45;;;;;;;7.50;4.25;;;;;;;7.69;63.47;98656.62;7793089;32;39869;-77
2022/01/05 17:11:03;;;;;;;6.35;3.80;;;;;;;7.63;63.65;98656.94;7791687;32;37878;-77
2022/01/05 17:15:19;;;;;;;4.07;2.95;;;;;;;8.07;61.94;98662.34;7791842;32;36006;-77
2022/01/05 17:19:38;;;;;;;6.93;3.20;;;;;;;7.60;62.82;98652.06;7792902;32;38905;-77
2022/01/05 17:23:55;;;;;;;6.65;3.20;;;;;;;7.99;61.55;98649.38;7792783;32;39630;-76
2022/01/05 17:28:12;;;;;;;8.05;3.28;;;;;;;7.33;63.51;98658.72;7792842;32;37770;-76
2022/01/05 17:32:29;;;;;;;7.72;4.18;;;;;;;7.85;61.84;98687.19;7792796;32;36670;-77
2022/01/05 17:37:05;;;;;;;5.72;3.70;;;;;;;7.22;63.16;98712.13;7792576;32;40284;-78
2022/01/05 17:41:22;;;;;;;5.87;3.80;;;;;;;7.47;62.49;98713.94;7792618;32;40611;-77
2022/01/05 17:45:38;;;;;;;5.53;3.50;;;;;;;7.30;63.06;98746.00;7792572;32;37734;-77
2022/01/05 17:49:54;;;;;;;4.93;3.47;;;;;;;6.73;65.29;98740.69;7791209;32;37705;-77
2022/01/05 17:54:11;;;;;;;7.53;3.65;;;;;;;7.81;62.50;98740.41;7792555;32;40070;-77
2022/01/05 17:58:27;;;;;;;6.05;3.62;;;;;;;7.63;62.46;98747.25;7792397;32;39935;-78
2022/01/05 18:02:43;;;;;;;5.00;3.47;;;;;;;7.98;61.77;98747.34;7792274;32;37548;-76
2022/01/05 18:07:00;;;;;;;6.25;3.83;;;;;;;7.73;62.34;98759.97;7792323;32;37094;-78
2022/01/05 18:11:22;;;;;;;6.45;4.15;;;;;;;7.68;62.40;98754.56;7792321;32;39308;-79
2022/01/05 18:15:38;;;;;;;6.85;4.47;;;;;;;7.74;62.23;98761.56;7792182;32;40758;-78
2022/01/05 18:19:54;;;;;;;6.68;4.12;;;;;;;7.81;61.82;98755.84;7792023;32;38666;-78
2022/01/05 18:24:13;;;;;;;5.60;3.92;;;;;;;8.05;61.22;98755.97;7792165;32;36964;-78
2022/01/05 18:28:29;;;;;;;5.18;3.42;;;;;;;7.41;61.92;98769.28;7788584;32;40410;-78
2022/01/05 18:32:47;;;;;;;5.05;3.20;;;;;;;7.77;61.32;98754.78;7790274;32;39718;-78
2022/01/05 18:37:04;;;;;;;5.07;3.33;;;;;;;7.69;61.39;98748.03;7790820;32;37758;-77
2022/01/05 18:41:23;;;;;;;4.95;3.35;;;;;;;7.22;62.82;98755.50;7791100;32;37691;-77
2022/01/05 18:45:39;;;;;;;3.70;2.90;;;;;;;7.47;61.27;98746.50;7791131;32;39285;-78
2022/01/05 18:49:56;;;;;;;4.32;3.03;;;;;;;7.59;61.53;98765.16;7790230;32;40033;-78
2022/01/05 18:54:12;;;;;;;6.68;3.20;;;;;;;7.34;61.86;98764.16;7791211;32;37780;-78
2022/01/05 18:58:28;;;;;;;5.07;3.50;;;;;;;7.66;60.11;98784.66;7790623;32;37007;-78
2022/01/05 19:02:44;;;;;;;4.22;2.97;;;;;;;7.42;60.85;98792.62;7790446;32;39943;-79
2022/01/05 19:07:00;;;;;;;4.37;3.03;;;;;;;7.36;60.08;98791.00;7790620;32;40741;-78
2022/01/05 19:11:17;;;;;;;3.53;2.67;;;;;;;7.57;58.86;98799.06;7790342;32;37749;-79
2022/01/05 19:15:35;;;;;;;3.08;2.65;;;;;;;7.57;58.03;98777.38;7790217;32;35989;-79
2022/01/05 19:19:51;;;;;;;3.35;2.55;;;;;;;7.17;57.92;98773.69;7789900;32;39007;-78
2022/01/05 19:24:08;;;;;;;2.60;2.17;;;;;;;7.56;55.44;98765.72;7790576;32;39600;-77
2022/01/05 19:28:25;;;;;;;1.98;1.87;;;;;;;7.28;53.70;98769.88;7789685;32;37335;-77
2022/01/05 19:32:43;;;;;;;2.45;2.05;;;;;;;7.13;51.41;98779.66;7789499;32;36910;-77
2022/01/05 19:36:59;;;;;;;3.60;2.20;;;;;;;6.85;52.75;98791.09;7789659;32;39237;-76
2022/01/05 19:41:16;;;;;;;2.03;1.92;;;;;;;6.67;52.20;98806.75;7788939;32;39958;-77
2022/01/05 19:45:33;;;;;;;10.27;3.62;;;;;;;6.88;52.18;98807.59;7789415;32;37836;-77
2022/01/05 19:49:53;;;;;;;3.45;2.20;;;;;;;6.81;51.44;98800.81;7789173;32;36976;-76
2022/01/05 19:54:27;;;;;;;3.72;2.33;;;;;;;6.64;51.85;98815.47;7788421;32;39708;-78
2022/01/05 19:58:50;;;;;;;3.30;2.20;;;;;;;6.55;52.03;98817.06;7788550;32;40095;-78
2022/01/05 20:03:10;;;;;;;2.40;2.20;;;;;;;6.45;52.26;98774.56;7789609;32;37305;-77
2022/01/05 20:07:29;;;;;;;2.85;2.40;;;;;;;6.51;52.17;98778.88;7789526;32;36990;-78
2022/01/05 20:11:45;;;;;;;2.65;2.40;;;;;;;6.17;52.48;98765.00;7789497;32;40510;-79
2022/01/05 20:16:01;;;;;;;2.15;2.00;;;;;;;6.09;51.05;98792.59;7792443;32;40758;-77
2022/01/05 20:20:18;;;;;;;2.40;2.20;;;;;;;5.96;51.27;98802.84;7793421;32;37745;-78
2022/01/05 20:24:34;;;;;;;2.80;2.50;;;;;;;5.88;49.66;98833.09;7792192;32;36981;-77
2022/01/05 20:28:53;;;;;;;2.85;2.55;;;;;;;5.75;49.93;98839.00;7793380;32;39325;-76